createdAt,value
2018-03-16T04:32:34.922Z,7.80
2018-03-16T04:35:09.519Z,7.80
2018-03-16T04:37:44.271Z,7.80
2018-03-16T04:40:18.078Z,7.80
2018-03-16T04:42:51.739Z,7.90
2018-03-16T04:45:27.026Z,7.90
2018-03-16T04:48:01.549Z,7.90
2018-03-16T04:50:35.570Z,7.90
2018-03-16T04:53:09.250Z,7.90
2018-03-16T04:55:43.886Z,7.90
2018-03-16T04:58:40.336Z,7.90
2018-03-16T05:01:14.819Z,8.00
2018-03-16T05:03:48.571Z,8.00
2018-03-16T05:06:22.429Z,8.10
2018-03-16T05:08:57.086Z,8.10
2018-03-16T05:11:30.898Z,8.00
2018-03-16T05:14:04.695Z,8.10
2018-03-16T05:16:39.634Z,8.00
2018-03-16T05:19:14.274Z,8.00
2018-03-16T05:21:48.058Z,8.00
2018-03-16T05:24:21.888Z,8.00
2018-03-16T05:26:55.679Z,8.10
2018-03-16T05:29:30.410Z,8.00
2018-03-16T05:32:04.206Z,8.00
2018-03-16T05:34:38.064Z,8.00
2018-03-16T05:37:12.001Z,8.00
2018-03-16T05:39:46.143Z,8.00
2018-03-16T05:42:19.957Z,8.00
2018-03-16T05:44:53.885Z,8.00
2018-03-16T05:47:27.921Z,8.00
2018-03-16T05:50:01.723Z,8.10
2018-03-16T05:52:36.282Z,8.10
2018-03-16T05:55:10.828Z,8.20
2018-03-16T05:57:44.806Z,8.20
2018-03-16T06:00:19.922Z,8.20
2018-03-16T06:02:53.645Z,8.20
2018-03-16T06:05:27.641Z,8.20
2018-03-16T06:08:01.399Z,8.30
2018-03-16T06:10:35.205Z,8.30
2018-03-16T06:13:10.022Z,8.40
2018-03-16T06:15:43.803Z,8.40
2018-03-16T06:18:17.744Z,8.50
2018-03-16T06:20:52.347Z,8.60
2018-03-16T06:23:27.196Z,8.50
2018-03-16T06:26:01.959Z,8.60
2018-03-16T06:28:35.809Z,8.60
2018-03-16T06:31:09.686Z,8.70
2018-03-16T06:33:44.377Z,8.90
2018-03-16T06:36:18.309Z,8.90
2018-03-16T06:38:52.135Z,9.00
2018-03-16T06:41:26.026Z,9.00
2018-03-16T06:43:59.932Z,9.10
2018-03-16T06:46:34.520Z,9.10
2018-03-16T06:49:08.285Z,9.00
2018-03-16T06:51:42.863Z,9.10
2018-03-16T06:54:16.674Z,9.10
2018-03-16T06:56:51.574Z,9.20
2018-03-16T06:59:26.238Z,9.30
2018-03-16T07:02:00.211Z,9.30
2018-03-16T07:04:34.027Z,9.40
2018-03-16T07:07:08.667Z,9.20
2018-03-16T07:09:45.946Z,9.10
2018-03-16T07:12:19.831Z,9.10
2018-03-16T07:14:53.654Z,9.10
2018-03-16T07:17:30.243Z,9.10
2018-03-16T07:20:04.038Z,9.10
2018-03-16T07:22:37.760Z,8.90
2018-03-16T07:25:11.543Z,8.90
2018-03-16T07:27:45.386Z,9.00
2018-03-16T07:30:19.177Z,9.10
2018-03-16T07:32:53.770Z,9.00
2018-03-16T07:35:28.418Z,9.10
2018-03-16T07:38:03.010Z,9.10
2018-03-16T07:40:36.752Z,9.10
2018-03-16T07:43:10.719Z,9.20
2018-03-16T07:45:50.258Z,9.20
2018-03-16T07:48:24.816Z,9.30
2018-03-16T07:50:58.662Z,9.30
2018-03-16T07:53:32.420Z,9.40
2018-03-16T07:56:06.226Z,9.30
2018-03-16T07:58:40.067Z,9.10
2018-03-16T08:01:13.830Z,9.10
2018-03-16T08:03:48.815Z,9.20
2018-03-16T08:06:22.539Z,9.30
2018-03-16T08:08:56.278Z,9.50
2018-03-16T08:11:31.177Z,9.70
2018-03-16T08:14:05.652Z,9.80
2018-03-16T08:16:39.653Z,9.80
2018-03-16T08:19:13.466Z,9.70
2018-03-16T08:21:47.281Z,9.80
2018-03-16T08:24:26.887Z,10.10
2018-03-16T08:27:00.751Z,10.10
2018-03-16T08:29:38.470Z,10.40
2018-03-16T08:32:12.458Z,10.60
2018-03-16T08:34:46.950Z,11.10
2018-03-16T08:37:20.989Z,11.10
2018-03-16T08:39:54.730Z,11.10
2018-03-16T08:42:28.642Z,11.00
2018-03-16T08:45:02.318Z,11.00
2018-03-16T08:47:36.123Z,11.00
2018-03-16T08:50:10.758Z,10.90
2018-03-16T08:52:44.641Z,11.10
2018-03-16T08:55:19.404Z,11.30
2018-03-16T08:57:53.182Z,11.30
2018-03-16T09:00:27.028Z,11.30
2018-03-16T09:03:00.890Z,11.40
2018-03-16T09:05:36.136Z,11.30
2018-03-16T09:08:10.780Z,11.30
2018-03-16T09:10:44.741Z,11.40
2018-03-16T09:13:18.728Z,11.60
2018-03-16T09:15:54.258Z,11.70
2018-03-16T09:18:28.161Z,11.70
2018-03-16T09:21:02.018Z,11.40
2018-03-16T09:23:36.555Z,11.60
2018-03-16T09:26:10.534Z,11.60
2018-03-16T09:28:44.571Z,11.90
2018-03-16T09:31:18.373Z,12.00
2018-03-16T09:33:52.210Z,12.00
2018-03-16T09:36:26.761Z,12.10
2018-03-16T09:39:00.696Z,12.10
2018-03-16T09:41:39.741Z,12.10
2018-03-16T09:44:14.255Z,11.90
2018-03-16T09:46:48.750Z,11.60
2018-03-16T09:49:22.788Z,11.60
2018-03-16T09:51:58.125Z,11.50
2018-03-16T09:54:44.840Z,11.50
2018-03-16T09:57:18.654Z,11.40
2018-03-16T09:59:53.150Z,11.50
2018-03-16T10:02:26.898Z,11.50
2018-03-16T10:05:00.690Z,11.60
2018-03-16T10:07:34.569Z,11.70
2018-03-16T10:10:08.391Z,11.90
2018-03-16T10:12:42.243Z,12.10
2018-03-16T10:15:16.058Z,12.40
2018-03-16T10:17:50.742Z,12.70
2018-03-16T10:20:25.334Z,12.60
2018-03-16T10:22:59.468Z,12.50
2018-03-16T10:25:33.296Z,12.40
2018-03-16T10:28:07.119Z,12.30
2018-03-16T10:30:41.678Z,12.20
2018-03-16T10:33:15.535Z,12.20
2018-03-16T10:35:49.299Z,12.40
2018-03-16T10:38:23.330Z,12.50
2018-03-16T10:40:57.164Z,12.70
2018-03-16T10:43:30.914Z,12.90
2018-03-16T10:46:04.815Z,12.60
2018-03-16T10:48:38.559Z,12.70
2018-03-16T10:51:13.775Z,12.90
2018-03-16T10:53:49.023Z,12.70
2018-03-16T10:56:22.994Z,12.70
2018-03-16T10:58:57.205Z,12.70
2018-03-16T11:01:36.722Z,12.60
2018-03-16T11:04:14.206Z,12.60
2018-03-16T11:06:53.815Z,12.50
2018-03-16T11:09:27.660Z,12.40
2018-03-16T11:12:02.254Z,12.50
2018-03-16T11:14:37.886Z,12.50
2018-03-16T11:17:11.725Z,12.50
2018-03-16T11:19:46.258Z,13.30
2018-03-16T11:22:20.129Z,13.30
2018-03-16T11:24:53.903Z,13.80
2018-03-16T11:27:28.367Z,13.60
2018-03-16T11:30:02.928Z,13.60
2018-03-16T11:32:36.782Z,13.60
2018-03-16T11:35:10.681Z,13.70
2018-03-16T11:37:48.384Z,14.00
2018-03-16T11:40:22.236Z,13.90
2018-03-16T11:42:56.055Z,14.00
2018-03-16T11:45:34.002Z,13.80
2018-03-16T11:48:11.399Z,13.60
2018-03-16T11:50:46.050Z,13.80
2018-03-16T11:53:19.801Z,13.80
2018-03-16T11:55:54.570Z,13.90
2018-03-16T11:58:29.037Z,14.30
2018-03-16T12:01:02.961Z,14.70
2018-03-16T12:03:36.743Z,14.60
2018-03-16T12:06:11.528Z,14.50
2018-03-16T12:08:45.393Z,13.90
2018-03-16T12:11:19.062Z,13.40
2018-03-16T12:13:52.912Z,13.10
2018-03-16T12:16:27.929Z,13.20
2018-03-16T12:19:01.884Z,13.10
2018-03-16T12:21:35.694Z,13.30
2018-03-16T12:24:09.463Z,13.20
2018-03-16T12:26:43.276Z,13.40
2018-03-16T12:29:17.226Z,13.20
2018-03-16T12:31:51.106Z,13.30
2018-03-16T12:34:24.914Z,13.30
2018-03-16T12:36:58.759Z,13.70
2018-03-16T12:39:32.653Z,13.30
2018-03-16T12:42:06.542Z,13.20
2018-03-16T12:44:41.416Z,13.00
2018-03-16T12:47:15.438Z,13.00
2018-03-16T12:49:49.549Z,13.10
2018-03-16T12:52:24.558Z,13.10
2018-03-16T12:55:04.632Z,13.00
2018-03-16T12:57:38.846Z,12.90
2018-03-16T13:00:14.086Z,13.40
2018-03-16T13:02:49.014Z,13.40
2018-03-16T13:05:24.848Z,13.70
2018-03-16T13:07:59.222Z,13.70
2018-03-16T13:10:33.910Z,13.70
2018-03-16T13:13:07.814Z,13.70
2018-03-16T13:15:41.669Z,13.80
2018-03-16T13:18:18.687Z,13.90
2018-03-16T13:20:53.044Z,14.00
2018-03-16T13:23:26.904Z,14.00
2018-03-16T13:26:01.523Z,13.90
2018-03-16T13:28:35.371Z,13.90
2018-03-16T13:31:09.975Z,14.10
2018-03-16T13:33:43.847Z,14.10
2018-03-16T13:36:18.513Z,14.10
2018-03-16T13:38:52.259Z,14.10
2018-03-16T13:41:26.866Z,14.00
2018-03-16T13:44:01.439Z,13.80
2018-03-16T13:46:35.224Z,13.80
2018-03-16T13:49:09.806Z,14.00
2018-03-16T13:51:43.687Z,14.00
2018-03-16T13:54:18.255Z,14.00
2018-03-16T13:56:53.568Z,14.20
2018-03-16T13:59:28.174Z,14.50
2018-03-16T14:02:02.056Z,14.50
2018-03-16T14:04:35.835Z,14.70
2018-03-16T14:07:10.551Z,14.10
2018-03-16T14:09:45.324Z,14.10
2018-03-16T14:12:19.203Z,13.80
2018-03-16T14:14:52.962Z,13.80
2018-03-16T14:17:30.278Z,14.00
2018-03-16T14:20:04.326Z,14.30
2018-03-16T14:22:38.071Z,14.40
2018-03-16T14:25:11.956Z,14.20
2018-03-16T14:27:45.651Z,14.30
2018-03-16T14:30:19.583Z,14.60
2018-03-16T14:32:54.182Z,14.80
2018-03-16T14:35:28.067Z,14.80
2018-03-16T14:38:02.026Z,14.80
2018-03-16T14:40:39.728Z,14.80
2018-03-16T14:43:13.642Z,14.70
2018-03-16T14:45:48.263Z,14.50
2018-03-16T14:48:22.107Z,14.40
2018-03-16T14:50:56.027Z,14.40
2018-03-16T14:53:30.709Z,14.30
2018-03-16T14:56:05.347Z,14.10
2018-03-16T14:58:47.704Z,14.10
2018-03-16T15:01:23.274Z,14.10
2018-03-16T15:03:57.202Z,14.10
2018-03-16T15:06:31.031Z,14.20
2018-03-16T15:09:05.833Z,14.20
2018-03-16T15:11:39.655Z,14.30
2018-03-16T15:14:13.493Z,14.30
2018-03-16T15:16:47.351Z,14.20
2018-03-16T15:19:21.199Z,14.20
2018-03-16T15:21:57.059Z,13.90
2018-03-16T15:24:31.714Z,13.70
2018-03-16T15:27:06.372Z,13.70
2018-03-16T15:29:40.131Z,13.70
2018-03-16T15:32:14.033Z,13.70
2018-03-16T15:34:49.380Z,13.70
2018-03-16T15:37:23.237Z,13.70
2018-03-16T15:39:57.121Z,13.80
2018-03-16T15:42:30.916Z,13.90
2018-03-16T15:45:04.772Z,13.90
2018-03-16T15:47:39.319Z,14.00
2018-03-16T15:50:13.170Z,13.90
2018-03-16T15:52:47.876Z,13.90
2018-03-16T15:55:22.498Z,13.90
2018-03-16T15:57:56.269Z,13.80
2018-03-16T16:00:31.842Z,13.70
2018-03-16T16:03:05.747Z,13.70
2018-03-16T16:05:39.583Z,13.50
2018-03-16T16:08:13.500Z,13.50
2018-03-16T16:10:48.351Z,13.50
2018-03-16T16:13:22.951Z,13.30
2018-03-16T16:15:56.660Z,13.30
2018-03-16T16:18:31.265Z,13.10
2018-03-16T16:21:05.214Z,13.10
2018-03-16T16:23:39.800Z,12.90
2018-03-16T16:26:13.553Z,12.90
2018-03-16T16:28:47.351Z,12.90
2018-03-16T16:31:21.264Z,12.90
2018-03-16T16:33:55.292Z,12.90
2018-03-16T16:36:29.856Z,12.90
2018-03-16T16:39:05.621Z,12.90
2018-03-16T16:41:39.233Z,12.90
2018-03-16T16:44:13.013Z,12.90
2018-03-16T16:46:46.870Z,12.80
2018-03-16T16:49:21.469Z,12.70
2018-03-16T16:51:55.321Z,12.70
2018-03-16T16:54:29.853Z,12.60
2018-03-16T16:57:04.508Z,12.50
2018-03-16T16:59:38.292Z,12.50
2018-03-16T17:02:12.473Z,12.40
2018-03-16T17:04:46.205Z,12.40
2018-03-16T17:07:20.090Z,12.40
2018-03-16T17:09:53.866Z,12.30
2018-03-16T17:12:28.447Z,12.20
2018-03-16T17:15:03.804Z,12.20
2018-03-16T17:17:38.383Z,12.20
2018-03-16T17:20:12.464Z,12.20
2018-03-16T17:22:47.479Z,12.20
2018-03-16T17:25:21.176Z,12.10
2018-03-16T17:27:55.057Z,12.10
2018-03-16T17:30:28.892Z,12.00
2018-03-16T17:33:02.684Z,12.00
2018-03-16T17:35:36.573Z,11.90
2018-03-16T17:38:10.297Z,11.90
2018-03-16T17:40:44.136Z,11.80
2018-03-16T17:43:18.718Z,11.70
2018-03-16T17:45:52.448Z,11.60
2018-03-16T17:48:26.264Z,11.60
2018-03-16T17:51:00.105Z,11.60
2018-03-16T17:53:33.923Z,11.50
2018-03-16T17:56:08.607Z,11.40
2018-03-16T17:58:43.210Z,11.40
2018-03-16T18:01:16.896Z,11.30
2018-03-16T18:03:50.641Z,11.20
2018-03-16T18:06:25.257Z,11.10
2018-03-16T18:08:59.089Z,11.10
2018-03-16T18:11:32.896Z,11.10
2018-03-16T18:14:06.680Z,11.10
2018-03-16T18:16:40.503Z,11.00
2018-03-16T18:19:14.992Z,10.80
2018-03-16T18:21:48.700Z,10.90
2018-03-16T18:24:22.476Z,10.80
2018-03-16T18:26:56.329Z,10.60
2018-03-16T18:29:30.120Z,10.50
2018-03-16T18:32:03.870Z,10.40
2018-03-16T18:34:37.748Z,10.30
2018-03-16T18:37:12.565Z,10.20
2018-03-16T18:39:46.293Z,10.20
2018-03-16T18:42:20.125Z,10.10
2018-03-16T18:44:53.914Z,10.10
2018-03-16T18:47:27.689Z,10.10
2018-03-16T18:50:01.561Z,10.10
2018-03-16T18:52:35.346Z,10.00
2018-03-16T18:55:09.021Z,10.00
2018-03-16T18:57:43.534Z,9.90
2018-03-16T19:00:18.123Z,9.90
2018-03-16T19:02:51.823Z,9.90
2018-03-16T19:05:26.245Z,9.90
2018-03-16T19:08:00.045Z,9.80
2018-03-16T19:10:33.917Z,9.80
2018-03-16T19:13:08.032Z,9.80
2018-03-16T19:15:41.856Z,9.80
2018-03-16T19:18:15.821Z,9.80
2018-03-16T19:20:49.484Z,9.70
2018-03-16T19:23:23.273Z,9.70
2018-03-16T19:25:57.634Z,9.60
2018-03-16T19:28:31.468Z,9.60
2018-03-16T19:31:05.196Z,9.60
2018-03-16T19:33:38.924Z,9.60
2018-03-16T19:36:12.692Z,9.60
2018-03-16T19:38:47.478Z,9.50
2018-03-16T19:41:21.304Z,9.50
2018-03-16T19:43:55.120Z,9.40
2018-03-16T19:46:28.884Z,9.40
2018-03-16T19:49:02.724Z,9.40
2018-03-16T19:51:36.529Z,9.40
2018-03-16T19:54:10.336Z,9.40
2018-03-16T19:56:44.853Z,9.40
2018-03-16T19:59:18.501Z,9.40
2018-03-16T20:01:52.412Z,9.40
2018-03-16T20:04:26.967Z,9.40
2018-03-16T20:07:00.738Z,9.40
2018-03-16T20:09:35.096Z,9.40
2018-03-16T20:12:08.938Z,9.40
2018-03-16T20:14:42.680Z,9.40
2018-03-16T20:17:17.346Z,9.40
2018-03-16T20:19:51.066Z,9.30
2018-03-16T20:22:24.789Z,9.40
2018-03-16T20:24:58.573Z,9.30
2018-03-16T20:27:32.301Z,9.30
2018-03-16T20:30:06.081Z,9.30
2018-03-16T20:32:39.901Z,9.20
2018-03-16T20:35:14.486Z,8.90
2018-03-16T20:37:48.248Z,8.80
2018-03-16T20:40:22.808Z,8.60
2018-03-16T20:42:56.576Z,8.60
2018-03-16T20:45:30.338Z,8.50
2018-03-16T20:48:04.088Z,8.50
2018-03-16T20:50:38.646Z,8.40
2018-03-16T20:53:12.540Z,8.30
2018-03-16T20:55:46.292Z,8.30
2018-03-16T20:58:20.302Z,8.20
2018-03-16T21:00:53.962Z,8.10
2018-03-16T21:03:27.817Z,8.10
2018-03-16T21:06:01.609Z,8.10
2018-03-16T21:08:35.263Z,8.10
2018-03-16T21:11:09.016Z,8.10
2018-03-16T21:13:42.681Z,8.00
2018-03-16T21:16:16.451Z,8.00
2018-03-16T21:18:50.168Z,7.90
2018-03-16T21:21:26.884Z,7.80
2018-03-16T21:24:00.460Z,7.80
2018-03-16T21:26:34.286Z,7.80
2018-03-16T21:29:08.036Z,7.80
2018-03-16T21:31:41.724Z,7.70
2018-03-16T21:34:15.492Z,7.70
2018-03-16T21:36:49.240Z,7.60
2018-03-16T21:39:23.036Z,7.60
2018-03-16T21:41:56.821Z,7.50
2018-03-16T21:44:31.074Z,7.50
2018-03-16T21:47:04.766Z,7.50
2018-03-16T21:49:38.616Z,7.40
2018-03-16T21:52:12.375Z,7.30
2018-03-16T21:54:46.216Z,7.20
2018-03-16T21:57:20.070Z,7.20
2018-03-16T21:59:53.878Z,7.20
